Millheim, Texas
Current Conditions -  °F | °C
As of 10:35 AM on Friday 24 Oct 2014 (Local Time) from KELA Reporting Station
Clear Clear  
Wind Chill: 70°   Ceiling: Unl
Heat Index: 70°   Visibility: 10mi
Dew Point: 56°   Wind: 3mph
Humidity: 61%   Direction: 30°NNE
Pressure: 30.18"   Gusts: NA
Location:  29.7835°N, 96.2064°W
Report Text: KELA 241535Z AUTO 03003KT 10SM CLR 21/13 A3018 RMK AO2 T02110132
Loading
Personal Weather Stations






























Interactive Weather Map New forecast layout! Learn more

10-Day Weather Forecast

Advertisements
Track Severe Weather on mobile